sensor_id;sensor_type;location;lat;lon;timestamp;P1;durP1;ratioP1;P2;durP2;ratioP2
7338;SDS011;33747;49.524;8.390;2023-05-15T00:01:27;3.70;;;2.75;;
7338;SDS011;33747;49.524;8.390;2023-05-15T00:03:52;11.10;;;3.10;;
7338;SDS011;33747;49.524;8.390;2023-05-15T00:06:18;2.67;;;2.47;;
7338;SDS011;33747;49.524;8.390;2023-05-15T00:08:44;3.28;;;2.20;;
7338;SDS011;33747;49.524;8.390;2023-05-15T00:11:09;5.43;;;3.08;;
7338;SDS011;33747;49.524;8.390;2023-05-15T00:13:35;3.38;;;2.63;;
7338;SDS011;33747;49.524;8.390;2023-05-15T00:16:02;8.75;;;3.10;;
7338;SDS011;33747;49.524;8.390;2023-05-15T00:18:28;3.08;;;2.78;;
7338;SDS011;33747;49.524;8.390;2023-05-15T00:20:54;5.03;;;2.70;;
7338;SDS011;33747;49.524;8.390;2023-05-15T00:23:19;2.90;;;2.70;;
7338;SDS011;33747;49.524;8.390;2023-05-15T00:25:44;7.55;;;2.55;;
7338;SDS011;33747;49.524;8.390;2023-05-15T00:28:10;4.40;;;2.80;;
7338;SDS011;33747;49.524;8.390;2023-05-15T00:30:35;3.47;;;2.80;;
7338;SDS011;33747;49.524;8.390;2023-05-15T00:33:01;3.38;;;3.03;;
7338;SDS011;33747;49.524;8.390;2023-05-15T00:35:26;3.35;;;3.05;;
7338;SDS011;33747;49.524;8.390;2023-05-15T00:37:51;3.28;;;2.92;;
7338;SDS011;33747;49.524;8.390;2023-05-15T00:40:18;3.28;;;2.97;;
7338;SDS011;33747;49.524;8.390;2023-05-15T00:42:45;2.72;;;2.53;;
7338;SDS011;33747;49.524;8.390;2023-05-15T00:45:12;2.70;;;2.50;;
7338;SDS011;33747;49.524;8.390;2023-05-15T00:47:39;3.22;;;2.95;;
7338;SDS011;33747;49.524;8.390;2023-05-15T00:50:04;10.32;;;3.10;;
7338;SDS011;33747;49.524;8.390;2023-05-15T00:52:30;4.18;;;3.10;;
7338;SDS011;33747;49.524;8.390;2023-05-15T00:54:56;3.67;;;2.88;;
7338;SDS011;33747;49.524;8.390;2023-05-15T00:57:21;7.63;;;2.92;;
7338;SDS011;33747;49.524;8.390;2023-05-15T00:59:48;3.92;;;2.60;;
7338;SDS011;33747;49.524;8.390;2023-05-15T01:02:15;3.08;;;2.60;;
7338;SDS011;33747;49.524;8.390;2023-05-15T01:04:42;4.80;;;3.10;;
7338;SDS011;33747;49.524;8.390;2023-05-15T01:07:07;6.28;;;3.00;;
7338;SDS011;33747;49.524;8.390;2023-05-15T01:09:33;4.15;;;2.97;;
7338;SDS011;33747;49.524;8.390;2023-05-15T01:11:59;5.10;;;3.13;;
7338;SDS011;33747;49.524;8.390;2023-05-15T01:14:26;3.75;;;3.20;;
7338;SDS011;33747;49.524;8.390;2023-05-15T01:16:51;4.70;;;3.15;;
7338;SDS011;33747;49.524;8.390;2023-05-15T01:19:17;3.45;;;2.90;;
7338;SDS011;33747;49.524;8.390;2023-05-15T01:35:45;3.33;;;3.03;;
7338;SDS011;33747;49.524;8.390;2023-05-15T01:38:36;4.53;;;3.40;;
7338;SDS011;33747;49.524;8.390;2023-05-15T01:41:22;4.97;;;3.15;;
7338;SDS011;33747;49.524;8.390;2023-05-15T01:43:51;5.97;;;3.67;;
7338;SDS011;33747;49.524;8.390;2023-05-15T01:46:33;3.58;;;2.67;;
7338;SDS011;33747;49.524;8.390;2023-05-15T01:49:03;3.80;;;3.50;;
7338;SDS011;33747;49.524;8.390;2023-05-15T01:51:30;3.80;;;3.40;;
7338;SDS011;33747;49.524;8.390;2023-05-15T01:53:56;5.25;;;3.53;;
7338;SDS011;33747;49.524;8.390;2023-05-15T01:56:23;3.78;;;3.30;;
7338;SDS011;33747;49.524;8.390;2023-05-15T01:58:49;3.58;;;3.28;;
7338;SDS011;33747;49.524;8.390;2023-05-15T02:01:16;5.25;;;3.42;;
7338;SDS011;33747;49.524;8.390;2023-05-15T02:03:42;4.25;;;3.42;;
7338;SDS011;33747;49.524;8.390;2023-05-15T02:06:09;4.07;;;3.40;;
7338;SDS011;33747;49.524;8.390;2023-05-15T02:08:34;4.32;;;3.78;;
7338;SDS011;33747;49.524;8.390;2023-05-15T02:11:00;4.18;;;3.33;;
7338;SDS011;33747;49.524;8.390;2023-05-15T02:13:26;7.35;;;4.60;;
7338;SDS011;33747;49.524;8.390;2023-05-15T02:15:52;6.93;;;4.55;;
7338;SDS011;33747;49.524;8.390;2023-05-15T02:18:17;7.03;;;4.28;;
7338;SDS011;33747;49.524;8.390;2023-05-15T02:20:43;6.03;;;4.72;;
7338;SDS011;33747;49.524;8.390;2023-05-15T02:23:08;8.48;;;4.53;;
7338;SDS011;33747;49.524;8.390;2023-05-15T02:26:03;8.68;;;4.55;;
7338;SDS011;33747;49.524;8.390;2023-05-15T02:28:37;9.48;;;4.68;;
7338;SDS011;33747;49.524;8.390;2023-05-15T02:31:10;15.50;;;5.20;;
7338;SDS011;33747;49.524;8.390;2023-05-15T02:33:52;6.68;;;4.28;;
7338;SDS011;33747;49.524;8.390;2023-05-15T02:36:22;7.55;;;3.92;;
7338;SDS011;33747;49.524;8.390;2023-05-15T02:38:52;5.68;;;3.80;;
7338;SDS011;33747;49.524;8.390;2023-05-15T02:41:17;10.10;;;4.82;;
7338;SDS011;33747;49.524;8.390;2023-05-15T02:43:43;6.18;;;4.35;;
7338;SDS011;33747;49.524;8.390;2023-05-15T02:46:09;5.65;;;4.28;;
7338;SDS011;33747;49.524;8.390;2023-05-15T02:48:36;8.70;;;4.63;;
7338;SDS011;33747;49.524;8.390;2023-05-15T02:51:04;7.55;;;4.30;;
7338;SDS011;33747;49.524;8.390;2023-05-15T02:53:30;10.27;;;4.78;;
7338;SDS011;33747;49.524;8.390;2023-05-15T02:55:56;8.15;;;4.60;;
7338;SDS011;33747;49.524;8.390;2023-05-15T02:58:22;7.35;;;4.80;;
7338;SDS011;33747;49.524;8.390;2023-05-15T03:00:47;9.57;;;5.13;;
7338;SDS011;33747;49.524;8.390;2023-05-15T03:03:12;12.65;;;6.03;;
7338;SDS011;33747;49.524;8.390;2023-05-15T03:05:38;10.20;;;5.82;;
7338;SDS011;33747;49.524;8.390;2023-05-15T03:08:04;12.88;;;6.43;;
7338;SDS011;33747;49.524;8.390;2023-05-15T03:10:29;10.07;;;5.43;;
7338;SDS011;33747;49.524;8.390;2023-05-15T03:12:55;12.05;;;5.07;;
7338;SDS011;33747;49.524;8.390;2023-05-15T03:15:23;7.00;;;4.32;;
7338;SDS011;33747;49.524;8.390;2023-05-15T03:17:48;5.60;;;3.78;;
7338;SDS011;33747;49.524;8.390;2023-05-15T03:20:14;5.00;;;3.85;;
7338;SDS011;33747;49.524;8.390;2023-05-15T03:22:39;7.30;;;4.43;;
7338;SDS011;33747;49.524;8.390;2023-05-15T03:25:05;11.65;;;4.78;;
7338;SDS011;33747;49.524;8.390;2023-05-15T03:27:32;8.13;;;5.20;;
7338;SDS011;33747;49.524;8.390;2023-05-15T03:29:57;7.03;;;4.45;;
7338;SDS011;33747;49.524;8.390;2023-05-15T03:32:22;8.93;;;5.13;;
7338;SDS011;33747;49.524;8.390;2023-05-15T03:34:48;10.32;;;4.72;;
7338;SDS011;33747;49.524;8.390;2023-05-15T03:37:13;7.85;;;4.80;;
7338;SDS011;33747;49.524;8.390;2023-05-15T03:39:39;14.10;;;4.18;;
7338;SDS011;33747;49.524;8.390;2023-05-15T03:42:04;8.65;;;4.20;;
7338;SDS011;33747;49.524;8.390;2023-05-15T03:44:30;8.77;;;4.60;;
7338;SDS011;33747;49.524;8.390;2023-05-15T03:46:55;10.75;;;4.55;;
7338;SDS011;33747;49.524;8.390;2023-05-15T03:49:20;5.65;;;3.92;;
7338;SDS011;33747;49.524;8.390;2023-05-15T03:51:46;4.40;;;3.80;;
7338;SDS011;33747;49.524;8.390;2023-05-15T03:54:11;14.07;;;4.80;;
7338;SDS011;33747;49.524;8.390;2023-05-15T03:56:37;8.15;;;4.22;;
7338;SDS011;33747;49.524;8.390;2023-05-15T03:59:02;8.45;;;4.15;;
7338;SDS011;33747;49.524;8.390;2023-05-15T04:01:28;8.38;;;4.85;;
7338;SDS011;33747;49.524;8.390;2023-05-15T04:03:53;8.70;;;4.20;;
7338;SDS011;33747;49.524;8.390;2023-05-15T04:06:18;10.43;;;4.97;;
7338;SDS011;33747;49.524;8.390;2023-05-15T04:08:44;7.95;;;4.80;;
7338;SDS011;33747;49.524;8.390;2023-05-15T04:11:09;10.07;;;5.65;;
7338;SDS011;33747;49.524;8.390;2023-05-15T04:13:36;10.85;;;4.82;;
7338;SDS011;33747;49.524;8.390;2023-05-15T04:16:01;10.05;;;5.07;;
7338;SDS011;33747;49.524;8.390;2023-05-15T04:18:27;7.53;;;4.57;;
7338;SDS011;33747;49.524;8.390;2023-05-15T04:20:53;8.43;;;4.45;;
7338;SDS011;33747;49.524;8.390;2023-05-15T04:23:18;7.80;;;3.72;;
7338;SDS011;33747;49.524;8.390;2023-05-15T04:25:44;8.40;;;4.30;;
7338;SDS011;33747;49.524;8.390;2023-05-15T04:28:11;6.75;;;3.90;;
7338;SDS011;33747;49.524;8.390;2023-05-15T04:30:37;6.63;;;4.07;;
7338;SDS011;33747;49.524;8.390;2023-05-15T04:33:02;4.80;;;3.40;;
7338;SDS011;33747;49.524;8.390;2023-05-15T04:35:28;4.88;;;3.67;;
7338;SDS011;33747;49.524;8.390;2023-05-15T04:37:53;4.13;;;3.55;;
7338;SDS011;33747;49.524;8.390;2023-05-15T04:40:19;10.18;;;3.70;;
7338;SDS011;33747;49.524;8.390;2023-05-15T04:42:44;7.78;;;4.05;;
7338;SDS011;33747;49.524;8.390;2023-05-15T04:45:10;5.18;;;3.50;;
7338;SDS011;33747;49.524;8.390;2023-05-15T04:47:35;7.07;;;4.35;;
7338;SDS011;33747;49.524;8.390;2023-05-15T04:50:01;8.27;;;4.07;;
7338;SDS011;33747;49.524;8.390;2023-05-15T04:52:26;7.38;;;3.65;;
7338;SDS011;33747;49.524;8.390;2023-05-15T04:54:52;4.53;;;3.75;;
7338;SDS011;33747;49.524;8.390;2023-05-15T04:57:19;7.45;;;3.40;;
7338;SDS011;33747;49.524;8.390;2023-05-15T04:59:45;8.63;;;3.63;;
7338;SDS011;33747;49.524;8.390;2023-05-15T05:02:10;4.68;;;3.33;;
7338;SDS011;33747;49.524;8.390;2023-05-15T05:04:36;9.93;;;3.75;;
7338;SDS011;33747;49.524;8.390;2023-05-15T05:07:01;6.72;;;3.90;;
7338;SDS011;33747;49.524;8.390;2023-05-15T05:09:29;5.88;;;4.07;;
7338;SDS011;33747;49.524;8.390;2023-05-15T05:11:55;5.95;;;3.75;;
7338;SDS011;33747;49.524;8.390;2023-05-15T05:14:23;7.80;;;3.72;;
7338;SDS011;33747;49.524;8.390;2023-05-15T05:16:48;9.13;;;4.00;;
7338;SDS011;33747;49.524;8.390;2023-05-15T05:19:13;9.77;;;3.88;;
7338;SDS011;33747;49.524;8.390;2023-05-15T05:21:39;4.80;;;3.38;;
7338;SDS011;33747;49.524;8.390;2023-05-15T05:24:04;3.92;;;3.30;;
7338;SDS011;33747;49.524;8.390;2023-05-15T05:26:29;6.35;;;3.85;;
7338;SDS011;33747;49.524;8.390;2023-05-15T05:28:55;5.88;;;3.42;;
7338;SDS011;33747;49.524;8.390;2023-05-15T05:31:20;13.57;;;4.43;;
7338;SDS011;33747;49.524;8.390;2023-05-15T05:33:46;9.77;;;4.03;;
7338;SDS011;33747;49.524;8.390;2023-05-15T05:36:13;12.48;;;4.97;;
7338;SDS011;33747;49.524;8.390;2023-05-15T05:38:38;9.32;;;3.90;;
7338;SDS011;33747;49.524;8.390;2023-05-15T05:41:04;6.85;;;4.00;;
7338;SDS011;33747;49.524;8.390;2023-05-15T05:43:30;7.43;;;3.65;;
7338;SDS011;33747;49.524;8.390;2023-05-15T05:45:55;5.47;;;2.78;;
7338;SDS011;33747;49.524;8.390;2023-05-15T05:48:20;7.05;;;3.33;;
7338;SDS011;33747;49.524;8.390;2023-05-15T05:50:46;15.73;;;3.35;;
7338;SDS011;33747;49.524;8.390;2023-05-15T05:53:11;3.63;;;2.78;;
7338;SDS011;33747;49.524;8.390;2023-05-15T05:55:36;3.00;;;2.13;;
7338;SDS011;33747;49.524;8.390;2023-05-15T05:58:02;2.08;;;1.90;;
7338;SDS011;33747;49.524;8.390;2023-05-15T06:00:28;2.40;;;2.20;;
7338;SDS011;33747;49.524;8.390;2023-05-15T06:02:54;5.00;;;2.38;;
7338;SDS011;33747;49.524;8.390;2023-05-15T06:05:23;3.05;;;2.10;;
7338;SDS011;33747;49.524;8.390;2023-05-15T06:07:55;2.03;;;1.92;;
7338;SDS011;33747;49.524;8.390;2023-05-15T06:10:20;9.63;;;2.10;;
7338;SDS011;33747;49.524;8.390;2023-05-15T06:12:46;3.00;;;2.50;;
7338;SDS011;33747;49.524;8.390;2023-05-15T06:15:12;1.63;;;1.52;;
7338;SDS011;33747;49.524;8.390;2023-05-15T06:17:38;3.83;;;2.08;;
7338;SDS011;33747;49.524;8.390;2023-05-15T06:20:04;4.15;;;2.30;;
7338;SDS011;33747;49.524;8.390;2023-05-15T06:22:31;2.20;;;1.92;;
7338;SDS011;33747;49.524;8.390;2023-05-15T06:24:57;4.70;;;2.50;;
7338;SDS011;33747;49.524;8.390;2023-05-15T06:27:23;3.25;;;2.75;;
7338;SDS011;33747;49.524;8.390;2023-05-15T06:29:50;3.95;;;3.10;;
7338;SDS011;33747;49.524;8.390;2023-05-15T06:32:15;4.85;;;2.90;;
7338;SDS011;33747;49.524;8.390;2023-05-15T06:34:41;5.93;;;2.85;;
7338;SDS011;33747;49.524;8.390;2023-05-15T06:37:06;2.63;;;2.35;;
7338;SDS011;33747;49.524;8.390;2023-05-15T06:39:32;2.60;;;2.40;;
7338;SDS011;33747;49.524;8.390;2023-05-15T06:41:57;4.65;;;2.72;;
7338;SDS011;33747;49.524;8.390;2023-05-15T06:44:25;7.30;;;3.00;;
7338;SDS011;33747;49.524;8.390;2023-05-15T06:46:51;3.83;;;2.65;;
7338;SDS011;33747;49.524;8.390;2023-05-15T06:49:16;4.88;;;3.22;;
7338;SDS011;33747;49.524;8.390;2023-05-15T06:51:41;9.07;;;3.38;;
7338;SDS011;33747;49.524;8.390;2023-05-15T06:54:07;4.70;;;3.10;;
7338;SDS011;33747;49.524;8.390;2023-05-15T06:56:32;2.58;;;2.38;;
7338;SDS011;33747;49.524;8.390;2023-05-15T06:58:58;4.25;;;3.05;;
7338;SDS011;33747;49.524;8.390;2023-05-15T07:01:23;4.85;;;2.95;;
7338;SDS011;33747;49.524;8.390;2023-05-15T07:03:48;4.30;;;2.97;;
7338;SDS011;33747;49.524;8.390;2023-05-15T07:06:14;3.40;;;2.92;;
7338;SDS011;33747;49.524;8.390;2023-05-15T07:08:39;3.45;;;2.70;;
7338;SDS011;33747;49.524;8.390;2023-05-15T07:11:05;4.53;;;3.20;;
7338;SDS011;33747;49.524;8.390;2023-05-15T07:13:30;4.13;;;2.83;;
7338;SDS011;33747;49.524;8.390;2023-05-15T07:15:55;5.45;;;3.08;;
7338;SDS011;33747;49.524;8.390;2023-05-15T07:18:21;5.53;;;3.28;;
7338;SDS011;33747;49.524;8.390;2023-05-15T07:20:46;9.88;;;3.30;;
7338;SDS011;33747;49.524;8.390;2023-05-15T07:23:11;6.03;;;3.53;;
7338;SDS011;33747;49.524;8.390;2023-05-15T07:25:37;3.53;;;3.20;;
7338;SDS011;33747;49.524;8.390;2023-05-15T07:28:02;3.50;;;3.20;;
7338;SDS011;33747;49.524;8.390;2023-05-15T07:30:28;4.30;;;3.13;;
7338;SDS011;33747;49.524;8.390;2023-05-15T07:32:53;4.40;;;3.75;;
7338;SDS011;33747;49.524;8.390;2023-05-15T07:35:18;6.53;;;3.95;;
7338;SDS011;33747;49.524;8.390;2023-05-15T07:37:44;8.05;;;3.80;;
7338;SDS011;33747;49.524;8.390;2023-05-15T07:40:10;4.93;;;3.92;;
7338;SDS011;33747;49.524;8.390;2023-05-15T07:42:36;5.80;;;4.28;;
7338;SDS011;33747;49.524;8.390;2023-05-15T07:45:01;6.80;;;3.97;;
7338;SDS011;33747;49.524;8.390;2023-05-15T07:47:27;4.57;;;4.10;;
7338;SDS011;33747;49.524;8.390;2023-05-15T07:49:52;4.45;;;3.63;;
7338;SDS011;33747;49.524;8.390;2023-05-15T07:52:17;6.18;;;3.58;;
7338;SDS011;33747;49.524;8.390;2023-05-15T07:54:43;9.80;;;3.90;;
7338;SDS011;33747;49.524;8.390;2023-05-15T07:57:08;5.30;;;4.00;;
7338;SDS011;33747;49.524;8.390;2023-05-15T07:59:34;7.40;;;4.78;;
7338;SDS011;33747;49.524;8.390;2023-05-15T08:02:00;10.30;;;4.53;;
7338;SDS011;33747;49.524;8.390;2023-05-15T08:04:25;10.23;;;4.18;;
7338;SDS011;33747;49.524;8.390;2023-05-15T08:06:51;5.65;;;4.85;;
7338;SDS011;33747;49.524;8.390;2023-05-15T08:09:16;5.68;;;4.95;;
7338;SDS011;33747;49.524;8.390;2023-05-15T08:11:41;7.18;;;4.97;;
7338;SDS011;33747;49.524;8.390;2023-05-15T08:14:07;8.13;;;5.38;;
7338;SDS011;33747;49.524;8.390;2023-05-15T08:16:32;8.48;;;4.88;;
7338;SDS011;33747;49.524;8.390;2023-05-15T08:18:58;4.57;;;4.18;;
7338;SDS011;33747;49.524;8.390;2023-05-15T08:21:27;6.50;;;5.07;;
7338;SDS011;33747;49.524;8.390;2023-05-15T08:23:53;6.18;;;5.30;;
7338;SDS011;33747;49.524;8.390;2023-05-15T08:26:18;7.43;;;6.03;;
7338;SDS011;33747;49.524;8.390;2023-05-15T08:28:44;7.95;;;5.35;;
7338;SDS011;33747;49.524;8.390;2023-05-15T08:31:10;7.50;;;5.55;;
7338;SDS011;33747;49.524;8.390;2023-05-15T08:33:35;12.30;;;5.78;;
7338;SDS011;33747;49.524;8.390;2023-05-15T08:36:01;8.07;;;5.72;;
7338;SDS011;33747;49.524;8.390;2023-05-15T08:38:26;6.90;;;5.15;;
7338;SDS011;33747;49.524;8.390;2023-05-15T08:40:51;13.45;;;5.78;;
7338;SDS011;33747;49.524;8.390;2023-05-15T08:43:17;16.40;;;6.80;;
7338;SDS011;33747;49.524;8.390;2023-05-15T08:45:44;19.38;;;7.63;;
7338;SDS011;33747;49.524;8.390;2023-05-15T08:48:10;11.43;;;6.65;;
7338;SDS011;33747;49.524;8.390;2023-05-15T08:50:38;12.57;;;7.93;;
7338;SDS011;33747;49.524;8.390;2023-05-15T08:53:04;16.90;;;8.50;;
7338;SDS011;33747;49.524;8.390;2023-05-15T08:55:29;11.80;;;9.10;;
7338;SDS011;33747;49.524;8.390;2023-05-15T08:57:55;11.63;;;8.95;;
7338;SDS011;33747;49.524;8.390;2023-05-15T09:00:20;11.00;;;8.23;;
7338;SDS011;33747;49.524;8.390;2023-05-15T09:02:46;16.00;;;9.23;;
7338;SDS011;33747;49.524;8.390;2023-05-15T09:05:12;18.20;;;9.93;;
7338;SDS011;33747;49.524;8.390;2023-05-15T09:07:38;14.18;;;10.95;;
7338;SDS011;33747;49.524;8.390;2023-05-15T09:10:05;14.85;;;10.35;;
7338;SDS011;33747;49.524;8.390;2023-05-15T09:12:32;14.88;;;10.57;;
7338;SDS011;33747;49.524;8.390;2023-05-15T09:17:41;14.95;;;11.30;;
7338;SDS011;33747;49.524;8.390;2023-05-15T09:20:10;18.17;;;11.70;;
7338;SDS011;33747;49.524;8.390;2023-05-15T09:22:49;19.88;;;12.20;;
7338;SDS011;33747;49.524;8.390;2023-05-15T09:25:14;18.30;;;13.10;;
7338;SDS011;33747;49.524;8.390;2023-05-15T09:27:57;16.10;;;12.47;;
7338;SDS011;33747;49.524;8.390;2023-05-15T09:30:24;21.30;;;12.88;;
7338;SDS011;33747;49.524;8.390;2023-05-15T09:32:50;19.90;;;14.00;;
7338;SDS011;33747;49.524;8.390;2023-05-15T09:38:11;20.60;;;15.30;;
7338;SDS011;33747;49.524;8.390;2023-05-15T09:40:37;21.05;;;16.73;;
7338;SDS011;33747;49.524;8.390;2023-05-15T09:43:03;22.75;;;15.90;;
7338;SDS011;33747;49.524;8.390;2023-05-15T09:45:29;30.05;;;16.05;;
7338;SDS011;33747;49.524;8.390;2023-05-15T09:47:55;21.85;;;16.45;;
7338;SDS011;33747;49.524;8.390;2023-05-15T09:50:22;26.10;;;17.25;;
7338;SDS011;33747;49.524;8.390;2023-05-15T09:52:50;23.67;;;17.88;;
7338;SDS011;33747;49.524;8.390;2023-05-15T09:55:16;23.65;;;16.08;;
7338;SDS011;33747;49.524;8.390;2023-05-15T09:57:43;17.13;;;13.38;;
7338;SDS011;33747;49.524;8.390;2023-05-15T10:00:09;15.18;;;12.93;;
7338;SDS011;33747;49.524;8.390;2023-05-15T10:02:38;20.27;;;13.23;;
7338;SDS011;33747;49.524;8.390;2023-05-15T10:05:05;20.98;;;12.65;;
7338;SDS011;33747;49.524;8.390;2023-05-15T10:07:34;24.85;;;14.68;;
7338;SDS011;33747;49.524;8.390;2023-05-15T10:10:01;20.25;;;13.73;;
7338;SDS011;33747;49.524;8.390;2023-05-15T10:12:27;24.10;;;14.57;;
7338;SDS011;33747;49.524;8.390;2023-05-15T10:14:57;20.50;;;14.43;;
7338;SDS011;33747;49.524;8.390;2023-05-15T10:17:24;19.20;;;13.43;;
7338;SDS011;33747;49.524;8.390;2023-05-15T10:19:51;23.38;;;12.68;;
7338;SDS011;33747;49.524;8.390;2023-05-15T10:22:27;14.55;;;11.48;;
7338;SDS011;33747;49.524;8.390;2023-05-15T10:25:01;16.00;;;11.73;;
7338;SDS011;33747;49.524;8.390;2023-05-15T10:27:31;15.15;;;11.55;;
7338;SDS011;33747;49.524;8.390;2023-05-15T10:29:59;16.00;;;12.45;;
7338;SDS011;33747;49.524;8.390;2023-05-15T10:32:25;15.25;;;11.63;;
7338;SDS011;33747;49.524;8.390;2023-05-15T10:34:51;19.88;;;12.73;;
7338;SDS011;33747;49.524;8.390;2023-05-15T10:37:16;16.95;;;12.07;;
7338;SDS011;33747;49.524;8.390;2023-05-15T10:39:42;19.83;;;15.10;;
7338;SDS011;33747;49.524;8.390;2023-05-15T10:42:08;37.03;;;16.17;;
7338;SDS011;33747;49.524;8.390;2023-05-15T10:44:34;20.42;;;12.50;;
7338;SDS011;33747;49.524;8.390;2023-05-15T10:46:59;15.45;;;10.75;;
7338;SDS011;33747;49.524;8.390;2023-05-15T10:49:25;14.00;;;10.38;;
7338;SDS011;33747;49.524;8.390;2023-05-15T10:51:51;11.57;;;9.05;;
7338;SDS011;33747;49.524;8.390;2023-05-15T10:54:16;28.90;;;11.75;;
7338;SDS011;33747;49.524;8.390;2023-05-15T10:56:42;16.80;;;10.05;;
7338;SDS011;33747;49.524;8.390;2023-05-15T10:59:08;12.55;;;7.20;;
7338;SDS011;33747;49.524;8.390;2023-05-15T11:01:35;11.13;;;9.05;;
7338;SDS011;33747;49.524;8.390;2023-05-15T11:04:15;13.55;;;8.98;;
7338;SDS011;33747;49.524;8.390;2023-05-15T11:06:42;14.00;;;9.57;;
7338;SDS011;33747;49.524;8.390;2023-05-15T11:14:17;16.85;;;8.95;;
7338;SDS011;33747;49.524;8.390;2023-05-15T11:19:20;11.10;;;8.85;;
7338;SDS011;33747;49.524;8.390;2023-05-15T11:27:29;12.93;;;7.72;;
7338;SDS011;33747;49.524;8.390;2023-05-15T11:32:44;5.80;;;3.95;;
7338;SDS011;33747;49.524;8.390;2023-05-15T11:35:20;4.55;;;3.20;;
7338;SDS011;33747;49.524;8.390;2023-05-15T11:37:53;5.85;;;4.60;;
7338;SDS011;33747;49.524;8.390;2023-05-15T11:40:20;13.55;;;5.95;;
7338;SDS011;33747;49.524;8.390;2023-05-15T11:43:00;6.28;;;5.03;;
7338;SDS011;33747;49.524;8.390;2023-05-15T11:45:30;5.93;;;4.80;;
7338;SDS011;33747;49.524;8.390;2023-05-15T11:48:00;6.97;;;4.25;;
7338;SDS011;33747;49.524;8.390;2023-05-15T11:50:30;6.45;;;3.85;;
7338;SDS011;33747;49.524;8.390;2023-05-15T11:52:57;6.10;;;4.15;;
7338;SDS011;33747;49.524;8.390;2023-05-15T11:55:25;6.07;;;4.55;;
7338;SDS011;33747;49.524;8.390;2023-05-15T11:57:51;6.10;;;4.93;;
7338;SDS011;33747;49.524;8.390;2023-05-15T12:00:16;9.38;;;4.63;;
7338;SDS011;33747;49.524;8.390;2023-05-15T12:02:42;9.85;;;5.88;;
7338;SDS011;33747;49.524;8.390;2023-05-15T12:05:07;8.93;;;6.25;;
7338;SDS011;33747;49.524;8.390;2023-05-15T12:07:37;12.15;;;5.82;;
7338;SDS011;33747;49.524;8.390;2023-05-15T12:10:03;7.75;;;5.55;;
7338;SDS011;33747;49.524;8.390;2023-05-15T12:12:29;12.30;;;5.18;;
7338;SDS011;33747;49.524;8.390;2023-05-15T12:14:59;11.32;;;5.25;;
7338;SDS011;33747;49.524;8.390;2023-05-15T12:17:24;7.93;;;5.00;;
7338;SDS011;33747;49.524;8.390;2023-05-15T12:19:50;14.48;;;5.88;;
7338;SDS011;33747;49.524;8.390;2023-05-15T12:22:15;5.60;;;5.18;;
7338;SDS011;33747;49.524;8.390;2023-05-15T12:24:42;6.35;;;5.30;;
7338;SDS011;33747;49.524;8.390;2023-05-15T12:27:09;13.15;;;5.10;;
7338;SDS011;33747;49.524;8.390;2023-05-15T12:29:35;11.35;;;5.93;;
7338;SDS011;33747;49.524;8.390;2023-05-15T12:32:01;7.78;;;6.03;;
7338;SDS011;33747;49.524;8.390;2023-05-15T12:34:26;9.73;;;6.07;;
7338;SDS011;33747;49.524;8.390;2023-05-15T12:36:51;10.80;;;5.93;;
7338;SDS011;33747;49.524;8.390;2023-05-15T12:39:17;10.77;;;5.50;;
7338;SDS011;33747;49.524;8.390;2023-05-15T12:41:42;11.00;;;6.03;;
7338;SDS011;33747;49.524;8.390;2023-05-15T12:44:15;6.40;;;5.63;;
7338;SDS011;33747;49.524;8.390;2023-05-15T12:46:41;9.05;;;5.80;;
7338;SDS011;33747;49.524;8.390;2023-05-15T12:49:07;9.25;;;6.57;;
7338;SDS011;33747;49.524;8.390;2023-05-15T12:51:32;6.60;;;5.90;;
7338;SDS011;33747;49.524;8.390;2023-05-15T12:53:57;7.88;;;6.00;;
7338;SDS011;33747;49.524;8.390;2023-05-15T12:56:23;7.13;;;5.55;;
7338;SDS011;33747;49.524;8.390;2023-05-15T12:58:49;6.93;;;4.72;;
7338;SDS011;33747;49.524;8.390;2023-05-15T13:01:14;8.48;;;5.07;;
7338;SDS011;33747;49.524;8.390;2023-05-15T13:03:41;7.57;;;5.63;;
7338;SDS011;33747;49.524;8.390;2023-05-15T13:06:06;8.00;;;5.45;;
7338;SDS011;33747;49.524;8.390;2023-05-15T13:08:37;5.97;;;5.38;;
7338;SDS011;33747;49.524;8.390;2023-05-15T13:11:04;11.50;;;5.07;;
7338;SDS011;33747;49.524;8.390;2023-05-15T13:13:45;6.90;;;5.07;;
7338;SDS011;33747;49.524;8.390;2023-05-15T13:16:19;7.38;;;5.93;;
7338;SDS011;33747;49.524;8.390;2023-05-15T13:18:45;8.20;;;5.75;;
7338;SDS011;33747;49.524;8.390;2023-05-15T13:21:10;8.90;;;6.18;;
7338;SDS011;33747;49.524;8.390;2023-05-15T13:23:36;5.68;;;4.97;;
7338;SDS011;33747;49.524;8.390;2023-05-15T13:26:01;9.90;;;4.95;;
7338;SDS011;33747;49.524;8.390;2023-05-15T13:28:27;6.25;;;5.63;;
7338;SDS011;33747;49.524;8.390;2023-05-15T13:30:52;9.70;;;6.32;;
7338;SDS011;33747;49.524;8.390;2023-05-15T13:33:17;8.50;;;6.90;;
7338;SDS011;33747;49.524;8.390;2023-05-15T13:35:43;9.02;;;6.68;;
7338;SDS011;33747;49.524;8.390;2023-05-15T13:38:09;8.98;;;5.85;;
7338;SDS011;33747;49.524;8.390;2023-05-15T13:40:35;13.23;;;6.03;;
7338;SDS011;33747;49.524;8.390;2023-05-15T13:43:01;8.90;;;6.80;;
7338;SDS011;33747;49.524;8.390;2023-05-15T13:45:26;7.25;;;5.85;;
7338;SDS011;33747;49.524;8.390;2023-05-15T13:47:53;7.68;;;4.30;;
7338;SDS011;33747;49.524;8.390;2023-05-15T13:50:18;6.60;;;4.65;;
7338;SDS011;33747;49.524;8.390;2023-05-15T13:52:45;8.32;;;4.50;;
7338;SDS011;33747;49.524;8.390;2023-05-15T13:55:10;6.15;;;4.95;;
7338;SDS011;33747;49.524;8.390;2023-05-15T13:57:36;9.30;;;5.45;;
7338;SDS011;33747;49.524;8.390;2023-05-15T14:00:05;13.93;;;5.90;;
7338;SDS011;33747;49.524;8.390;2023-05-15T14:02:34;6.55;;;5.13;;
7338;SDS011;33747;49.524;8.390;2023-05-15T14:05:00;10.13;;;5.25;;
7338;SDS011;33747;49.524;8.390;2023-05-15T14:07:25;10.60;;;5.63;;
7338;SDS011;33747;49.524;8.390;2023-05-15T14:09:50;5.85;;;5.25;;
7338;SDS011;33747;49.524;8.390;2023-05-15T14:12:16;6.47;;;5.38;;
7338;SDS011;33747;49.524;8.390;2023-05-15T14:14:41;12.32;;;5.55;;
7338;SDS011;33747;49.524;8.390;2023-05-15T14:17:07;5.78;;;4.70;;
7338;SDS011;33747;49.524;8.390;2023-05-15T14:19:32;8.07;;;5.25;;
7338;SDS011;33747;49.524;8.390;2023-05-15T14:21:58;9.07;;;5.55;;
7338;SDS011;33747;49.524;8.390;2023-05-15T14:24:24;9.15;;;4.82;;
7338;SDS011;33747;49.524;8.390;2023-05-15T14:26:49;9.38;;;4.82;;
7338;SDS011;33747;49.524;8.390;2023-05-15T14:29:14;5.78;;;5.15;;
7338;SDS011;33747;49.524;8.390;2023-05-15T14:31:40;6.93;;;5.93;;
7338;SDS011;33747;49.524;8.390;2023-05-15T14:34:07;9.02;;;5.53;;
7338;SDS011;33747;49.524;8.390;2023-05-15T14:36:32;5.82;;;5.25;;
7338;SDS011;33747;49.524;8.390;2023-05-15T14:38:57;10.00;;;6.32;;
7338;SDS011;33747;49.524;8.390;2023-05-15T14:41:23;8.57;;;5.90;;
7338;SDS011;33747;49.524;8.390;2023-05-15T14:43:48;12.52;;;5.72;;
7338;SDS011;33747;49.524;8.390;2023-05-15T14:46:14;9.98;;;5.82;;
7338;SDS011;33747;49.524;8.390;2023-05-15T14:48:39;10.55;;;6.43;;
7338;SDS011;33747;49.524;8.390;2023-05-15T14:51:04;7.32;;;5.25;;
7338;SDS011;33747;49.524;8.390;2023-05-15T14:53:30;5.35;;;4.85;;
7338;SDS011;33747;49.524;8.390;2023-05-15T14:55:55;6.22;;;4.43;;
7338;SDS011;33747;49.524;8.390;2023-05-15T14:58:22;5.03;;;4.30;;
7338;SDS011;33747;49.524;8.390;2023-05-15T15:00:47;6.90;;;4.30;;
7338;SDS011;33747;49.524;8.390;2023-05-15T15:03:13;6.07;;;4.85;;
7338;SDS011;33747;49.524;8.390;2023-05-15T15:05:39;6.75;;;4.22;;
7338;SDS011;33747;49.524;8.390;2023-05-15T15:08:05;4.60;;;3.58;;
7338;SDS011;33747;49.524;8.390;2023-05-15T15:10:33;9.10;;;7.00;;
7338;SDS011;33747;49.524;8.390;2023-05-15T15:13:00;10.10;;;5.85;;
7338;SDS011;33747;49.524;8.390;2023-05-15T15:15:26;7.50;;;5.35;;
7338;SDS011;33747;49.524;8.390;2023-05-15T15:17:51;15.82;;;5.55;;
7338;SDS011;33747;49.524;8.390;2023-05-15T15:20:18;13.27;;;6.03;;
7338;SDS011;33747;49.524;8.390;2023-05-15T15:22:45;9.43;;;6.00;;
7338;SDS011;33747;49.524;8.390;2023-05-15T15:25:10;9.48;;;6.40;;
7338;SDS011;33747;49.524;8.390;2023-05-15T15:27:36;8.20;;;5.80;;